Time;durP1;ratioP1;P1;durP2;ratioP2;P2;SDS_P1;SDS_P2;PMS_P1;PMS_P2;Temp;Humidity;BMP_temperature;BMP_pressure;BME280_temperature;BME280_humidity;BME280_pressure;Samples;Min_cycle;Max_cycle;Signal;HPM_P1;HPM_P2
2024/02/15 00:03:46;;;;;;;398.52;374.65;;;11.10;99.90;;;;;;12466092;28;20053;-36
2024/02/15 00:09:51;;;;;;;415.95;390.92;;;11.20;99.90;;;;;;12477200;28;20108;-36
2024/02/15 00:15:53;;;;;;;405.35;381.00;;;11.20;99.90;;;;;;12461944;28;20132;-36
2024/02/15 00:21:56;;;;;;;403.65;379.77;;;11.20;99.90;;;;;;12472492;28;20193;-36
2024/02/15 00:28:00;;;;;;;398.90;375.08;;;11.20;99.90;;;;;;12455944;28;20045;-36
2024/02/15 00:34:05;;;;;;;402.27;378.35;;;11.10;99.90;;;;;;12463440;28;20049;-36
2024/02/15 00:40:08;;;;;;;408.30;384.73;;;11.10;99.90;;;;;;12453421;28;20132;-36
2024/02/15 00:46:10;;;;;;;383.38;361.15;;;11.10;99.90;;;;;;12449248;28;20041;-36
2024/02/15 00:52:13;;;;;;;391.15;368.52;;;11.00;99.90;;;;;;12461276;28;20057;-36
2024/02/15 00:58:15;;;;;;;411.17;387.40;;;11.10;99.90;;;;;;12469436;28;20056;-36
2024/02/15 01:04:16;;;;;;;394.80;371.95;;;11.10;99.90;;;;;;12464330;28;20054;-36
2024/02/15 01:10:18;;;;;;;377.00;355.38;;;11.10;99.90;;;;;;12462699;28;20057;-36
2024/02/15 01:16:21;;;;;;;375.40;353.88;;;11.10;99.90;;;;;;12457081;28;20045;-36
2024/02/15 01:22:27;;;;;;;369.98;348.67;;;11.10;99.90;;;;;;12522323;28;20146;-36
2024/02/15 01:28:29;;;;;;;366.17;345.13;;;11.10;99.90;;;;;;12507331;28;20087;-35
2024/02/15 01:34:30;;;;;;;376.85;354.63;;;11.10;99.90;;;;;;12532042;28;20044;-36
2024/02/15 01:40:33;;;;;;;372.92;351.17;;;11.10;99.90;;;;;;12527954;28;20056;-36
2024/02/15 01:46:35;;;;;;;388.60;365.77;;;11.10;99.90;;;;;;12540394;28;20057;-36
2024/02/15 01:52:37;;;;;;;388.20;365.48;;;11.10;99.90;;;;;;12538341;28;20049;-36
2024/02/15 01:58:40;;;;;;;391.08;368.15;;;11.10;99.90;;;;;;12531311;28;20060;-36
2024/02/15 02:04:42;;;;;;;383.83;361.27;;;11.00;99.90;;;;;;12508111;28;20049;-35
2024/02/15 02:10:45;;;;;;;383.02;360.30;;;11.10;99.90;;;;;;12518292;28;20057;-36
2024/02/15 02:16:47;;;;;;;388.67;365.60;;;11.10;99.90;;;;;;12517751;28;20057;-36
2024/02/15 02:22:54;;;;;;;378.40;355.58;;;11.10;99.90;;;;;;12484701;28;20064;-36
2024/02/15 02:28:56;;;;;;;378.02;355.77;;;11.10;99.90;;;;;;12484024;28;20053;-35
2024/02/15 02:34:58;;;;;;;375.05;352.83;;;11.10;99.90;;;;;;12474818;28;20053;-36
2024/02/15 02:41:00;;;;;;;405.52;381.70;;;11.20;99.90;;;;;;12467643;28;20186;-36
2024/02/15 02:47:02;;;;;;;398.65;375.50;;;11.10;99.90;;;;;;12485484;28;20413;-38
2024/02/15 02:53:05;;;;;;;395.67;372.45;;;11.10;99.90;;;;;;12472564;28;20402;-36
2024/02/15 02:59:07;;;;;;;400.57;376.77;;;11.20;99.90;;;;;;12489902;28;20581;-36
2024/02/15 03:05:11;;;;;;;407.05;382.88;;;11.20;99.90;;;;;;12451343;28;20041;-36
2024/02/15 03:11:14;;;;;;;394.80;371.33;;;11.10;99.90;;;;;;12475022;28;20515;-36
2024/02/15 03:17:16;;;;;;;394.13;371.23;;;11.10;99.90;;;;;;12475995;28;20348;-36
2024/02/15 03:23:18;;;;;;;370.17;348.65;;;11.10;99.90;;;;;;12455136;28;20494;-36
2024/02/15 03:29:20;;;;;;;354.33;333.55;;;11.10;99.90;;;;;;12487199;28;20064;-36
2024/02/15 03:35:24;;;;;;;359.08;338.33;;;11.10;99.90;;;;;;12454912;28;20060;-36
2024/02/15 03:41:32;;;;;;;356.85;336.00;;;11.10;99.90;;;;;;12468804;28;20045;-36
2024/02/15 03:47:35;;;;;;;378.50;356.40;;;11.10;99.90;;;;;;12497486;28;20049;-35
2024/02/15 03:53:37;;;;;;;379.83;357.67;;;11.10;99.90;;;;;;12473792;28;20049;-36
2024/02/15 03:59:40;;;;;;;385.83;362.98;;;11.00;99.90;;;;;;12479978;28;20045;-36
2024/02/15 04:05:42;;;;;;;394.05;370.33;;;11.10;99.90;;;;;;12474132;28;20053;-36
2024/02/15 04:11:49;;;;;;;380.42;357.50;;;11.20;99.90;;;;;;12467891;28;20068;-36
2024/02/15 04:17:55;;;;;;;396.55;372.75;;;11.10;99.90;;;;;;12457272;28;20054;-36
2024/02/15 04:23:59;;;;;;;385.25;362.15;;;11.20;99.90;;;;;;12489212;28;20049;-36
2024/02/15 04:30:02;;;;;;;369.38;346.85;;;11.20;99.90;;;;;;12461233;28;20056;-36
2024/02/15 04:36:06;;;;;;;380.00;356.23;;;11.20;99.90;;;;;;12467337;28;20095;-35
2024/02/15 04:42:11;;;;;;;371.33;347.80;;;11.20;99.90;;;;;;12453756;28;20499;-36
2024/02/15 04:48:14;;;;;;;380.17;356.58;;;11.20;99.90;;;;;;12454378;28;20048;-36
2024/02/15 04:54:18;;;;;;;377.85;353.85;;;11.20;99.90;;;;;;12469636;28;20053;-36
2024/02/15 05:00:21;;;;;;;386.30;361.60;;;11.20;99.90;;;;;;12477958;28;20588;-36
2024/02/15 05:06:24;;;;;;;383.27;359.10;;;11.20;99.90;;;;;;12473810;28;20057;-36
2024/02/15 05:12:26;;;;;;;347.98;325.83;;;11.20;99.90;;;;;;12453417;28;20061;-35
2024/02/15 05:18:30;;;;;;;360.00;337.45;;;11.20;99.90;;;;;;12477021;28;20096;-36
2024/02/15 05:24:33;;;;;;;;;;;11.20;99.90;;;;;;12493216;28;20046;-36
2024/02/15 05:30:34;;;;;;;370.52;347.65;;;11.20;99.90;;;;;;12508172;28;20406;-36
2024/02/15 05:36:36;;;;;;;362.45;339.95;;;11.20;99.90;;;;;;12504631;28;20080;-35
2024/02/15 05:42:38;;;;;;;371.98;348.75;;;11.20;99.90;;;;;;12512399;28;20054;-36
2024/02/15 05:48:41;;;;;;;375.52;352.25;;;11.20;99.90;;;;;;12513789;28;20098;-36
2024/02/15 05:54:43;;;;;;;362.40;340.17;;;11.20;99.90;;;;;;12527563;28;20474;-36
2024/02/15 06:00:44;;;;;;;360.90;339.10;;;11.20;99.90;;;;;;12517611;28;20083;-36
2024/02/15 06:06:50;;;;;;;351.48;329.85;;;11.20;99.90;;;;;;12524971;28;20045;-36
2024/02/15 06:12:52;;;;;;;363.50;341.27;;;11.20;99.90;;;;;;12518830;28;20061;-36
2024/02/15 06:18:55;;;;;;;360.85;339.02;;;11.10;99.90;;;;;;12527132;28;20521;-36
2024/02/15 06:24:57;;;;;;;338.73;318.27;;;11.10;99.90;;;;;;12537105;28;20139;-36
2024/02/15 06:43:57;;;;;;;330.15;310.73;;;11.00;99.90;;;;;;12525328;28;20513;-36
2024/02/15 06:49:59;;;;;;;333.17;314.05;;;11.00;99.90;;;;;;12532362;28;20524;-36
2024/02/15 06:56:02;;;;;;;321.70;303.08;;;11.00;99.90;;;;;;12519815;28;20057;-36
2024/02/15 07:02:07;;;;;;;318.63;300.03;;;11.00;99.90;;;;;;12539055;28;20041;-36
2024/02/15 07:08:10;;;;;;;329.60;310.00;;;11.00;99.90;;;;;;12515906;28;20076;-36
2024/02/15 07:14:13;;;;;;;338.35;318.27;;;10.90;99.90;;;;;;12502966;28;20076;-36
2024/02/15 07:20:17;;;;;;;335.08;315.67;;;10.90;99.90;;;;;;12495268;28;20056;-36
2024/02/15 07:26:20;;;;;;;312.48;293.92;;;10.90;99.90;;;;;;12520053;28;20485;-36
2024/02/15 07:32:22;;;;;;;320.27;301.45;;;11.00;99.90;;;;;;12499312;28;20077;-36
2024/02/15 07:38:25;;;;;;;319.98;301.25;;;11.00;99.90;;;;;;12513869;28;20052;-36
2024/02/15 07:44:29;;;;;;;315.60;297.40;;;11.00;99.90;;;;;;12529135;28;20045;-36
2024/02/15 07:50:32;;;;;;;319.40;300.88;;;11.10;99.90;;;;;;12517267;28;20060;-36
2024/02/15 07:56:34;;;;;;;323.92;305.00;;;11.10;99.90;;;;;;12530434;28;20083;-35
2024/02/15 08:02:43;;;;;;;318.25;299.33;;;11.20;99.90;;;;;;12513868;28;20045;-35
2024/02/15 08:08:46;;;;;;;327.17;307.08;;;11.20;99.90;;;;;;12521906;28;20049;-36
2024/02/15 08:14:48;;;;;;;336.33;316.90;;;11.30;99.90;;;;;;12513331;28;20399;-36
2024/02/15 08:20:50;;;;;;;332.92;313.88;;;11.30;99.90;;;;;;12505937;28;20053;-36
2024/02/15 08:26:53;;;;;;;331.45;311.98;;;11.40;99.90;;;;;;12495704;28;20040;-36
2024/02/15 08:32:58;;;;;;;337.42;317.02;;;11.50;99.90;;;;;;12497660;28;20053;-36
2024/02/15 08:39:01;;;;;;;329.83;309.95;;;11.50;99.90;;;;;;12532781;28;20067;-36
2024/02/15 08:45:03;;;;;;;328.83;309.05;;;11.60;99.90;;;;;;12517890;28;20103;-36
2024/02/15 08:51:08;;;;;;;316.33;297.25;;;11.60;99.90;;;;;;12517256;28;20102;-36
2024/02/15 08:57:11;;;;;;;320.88;301.27;;;11.60;99.90;;;;;;12507680;28;20455;-36
2024/02/15 09:03:13;;;;;;;315.45;296.67;;;11.70;99.90;;;;;;12523465;28;20048;-36
2024/02/15 09:09:15;;;;;;;323.33;303.80;;;11.70;99.90;;;;;;12492204;28;20052;-36
2024/02/15 09:15:18;;;;;;;337.88;317.38;;;11.80;99.90;;;;;;12514252;28;20071;-36
2024/02/15 09:21:21;;;;;;;325.90;306.15;;;11.80;99.90;;;;;;12503516;28;20430;-36
2024/02/15 09:27:23;;;;;;;331.13;311.02;;;11.80;99.90;;;;;;12509180;28;20048;-36
2024/02/15 09:33:26;;;;;;;348.20;327.02;;;11.80;99.90;;;;;;12508811;28;20041;-36
2024/02/15 09:39:28;;;;;;;337.52;316.90;;;11.80;99.90;;;;;;12525309;28;20432;-36
2024/02/15 09:45:31;;;;;;;330.05;310.17;;;11.80;99.90;;;;;;12510395;28;20045;-36
2024/02/15 09:51:34;;;;;;;313.73;294.92;;;11.80;99.90;;;;;;12533861;28;20088;-36
2024/02/15 09:57:36;;;;;;;315.98;297.10;;;11.80;99.90;;;;;;12528090;28;20152;-36
2024/02/15 10:03:41;;;;;;;302.63;284.55;;;11.80;99.90;;;;;;12528305;28;20140;-36
2024/02/15 10:09:44;;;;;;;293.55;276.00;;;11.80;99.90;;;;;;12510113;28;20111;-36
2024/02/15 10:15:47;;;;;;;294.15;276.83;;;11.80;99.90;;;;;;12520167;28;20044;-36
2024/02/15 10:21:51;;;;;;;299.52;281.75;;;11.70;99.90;;;;;;12507991;28;20068;-36
2024/02/15 10:28:09;;;;;;;289.98;272.88;;;11.80;99.90;;;;;;12512090;28;20512;-37
2024/02/15 10:34:14;;;;;;;297.50;280.13;;;11.80;99.90;;;;;;12497892;28;20144;-36
2024/02/15 10:40:20;;;;;;;299.58;282.00;;;11.90;99.90;;;;;;12532079;28;20041;-36
2024/02/15 10:46:22;;;;;;;304.70;286.90;;;11.80;99.90;;;;;;12515066;28;20114;-36
2024/02/15 10:52:32;;;;;;;309.52;291.77;;;11.70;99.90;;;;;;12514471;28;20194;-36
2024/02/15 10:58:46;;;;;;;335.55;316.52;;;11.60;99.90;;;;;;12537159;28;20489;-36
2024/02/15 11:04:55;;;;;;;336.27;316.88;;;11.60;99.90;;;;;;12531654;28;20053;-36
2024/02/15 11:10:58;;;;;;;358.77;338.30;;;11.50;99.90;;;;;;12512634;28;20048;-36
2024/02/15 11:17:09;;;;;;;321.25;303.27;;;11.50;99.90;;;;;;12503799;28;20088;-36
2024/02/15 11:23:11;;;;;;;343.88;324.40;;;11.50;99.90;;;;;;12557133;28;20064;-36
2024/02/15 11:29:51;;;;;;;323.80;305.70;;;11.50;99.90;;;;;;12550618;28;20048;-36
2024/02/15 11:36:09;;;;;;;295.73;279.35;;;11.60;99.90;;;;;;12563631;28;20135;-35
2024/02/15 11:42:30;;;;;;;288.45;272.25;;;11.60;99.90;;;;;;12571124;28;20053;-36
2024/02/15 11:48:39;;;;;;;292.08;275.92;;;11.60;99.90;;;;;;12566140;28;20040;-35
2024/02/15 11:54:41;;;;;;;271.27;255.73;;;11.60;99.90;;;;;;12560037;28;20072;-36
2024/02/15 12:19:44;;;;;;;305.10;288.27;;;11.70;99.90;;;;;;12568440;28;20056;-35
2024/02/15 12:25:52;;;;;;;311.83;294.48;;;11.70;99.90;;;;;;12578945;28;20125;-36
2024/02/15 12:31:54;;;;;;;355.08;334.95;;;12.00;99.90;;;;;;12572208;28;20055;-36
2024/02/15 12:37:58;;;;;;;383.15;361.17;;;12.20;99.90;;;;;;12558526;28;20107;-36
2024/02/15 12:44:01;;;;;;;332.52;313.40;;;12.20;99.90;;;;;;12562747;28;20057;-36
2024/02/15 12:50:17;;;;;;;371.63;350.15;;;12.20;99.90;;;;;;12548374;28;20503;-36
2024/02/15 12:56:23;;;;;;;367.92;346.48;;;12.20;99.90;;;;;;12532064;28;20048;-36
2024/02/15 13:02:26;;;;;;;376.45;354.52;;;12.30;99.90;;;;;;12595047;28;20393;-36
2024/02/15 13:08:27;;;;;;;401.85;378.27;;;12.30;99.90;;;;;;12568602;28;20667;-36
2024/02/15 13:14:29;;;;;;;362.52;341.40;;;12.50;99.90;;;;;;12558523;28;20053;-36
2024/02/15 13:20:35;;;;;;;352.85;332.02;;;12.70;99.90;;;;;;12542697;28;20143;-36
2024/02/15 13:26:40;;;;;;;324.88;305.55;;;12.70;99.90;;;;;;12563006;28;20040;-36
2024/02/15 13:32:42;;;;;;;315.20;296.50;;;12.70;99.90;;;;;;12559581;28;20052;-37
2024/02/15 13:38:44;;;;;;;317.30;298.20;;;12.70;99.90;;;;;;12571454;28;20041;-36
2024/02/15 13:44:48;;;;;;;307.10;288.42;;;12.80;99.90;;;;;;12540607;28;20524;-35
2024/02/15 13:50:53;;;;;;;;;;;12.80;99.90;;;;;;12566746;28;20079;-36
2024/02/15 13:56:56;;;;;;;276.52;258.98;;;12.90;99.90;;;;;;12568127;28;19920;-36
2024/02/15 14:02:59;;;;;;;253.90;237.57;;;12.90;99.90;;;;;;12566873;28;20041;-35
2024/02/15 14:09:01;;;;;;;248.27;232.17;;;12.90;99.90;;;;;;12558618;28;20094;-36
2024/02/15 14:15:05;;;;;;;259.17;242.30;;;12.90;99.90;;;;;;12572836;28;20581;-36
2024/02/15 14:21:10;;;;;;;244.60;228.60;;;12.90;99.90;;;;;;12520953;28;20095;-36
2024/02/15 14:27:14;;;;;;;261.13;243.95;;;12.90;99.90;;;;;;12517445;28;20052;-36
2024/02/15 14:33:18;;;;;;;;;;;13.00;99.90;;;;;;12510642;28;20500;-36
2024/02/15 14:39:23;;;;;;;258.80;241.50;;;13.10;99.90;;;;;;12532222;28;19920;-36
2024/02/15 14:45:26;;;;;;;255.65;238.45;;;13.10;99.90;;;;;;12513699;28;20142;-36
2024/02/15 14:51:29;;;;;;;255.20;238.50;;;13.00;99.90;;;;;;12548708;28;20574;-36
2024/02/15 14:57:37;;;;;;;261.90;245.03;;;13.00;99.90;;;;;;12515851;28;20049;-36
2024/02/15 15:03:39;;;;;;;256.40;239.80;;;13.00;99.90;;;;;;12523856;28;20921;-36
2024/02/15 15:16:03;;;;;;;249.82;233.32;;;13.20;99.90;;;;;;12503114;28;20633;-36
2024/02/15 15:22:05;;;;;;;239.93;223.90;;;13.10;99.90;;;;;;12524939;28;20140;-36
2024/02/15 15:28:06;;;;;;;215.88;201.25;;;13.10;99.90;;;;;;12520381;28;20045;-36
2024/02/15 15:34:09;;;;;;;209.52;195.10;;;13.00;99.90;;;;;;12511246;28;20135;-36
2024/02/15 15:40:12;;;;;;;198.82;185.07;;;13.00;99.90;;;;;;12515821;28;20057;-36
2024/02/15 15:46:15;;;;;;;196.00;182.55;;;13.00;99.90;;;;;;12505093;28;20045;-36
2024/02/15 15:52:17;;;;;;;191.95;178.32;;;13.00;99.90;;;;;;12539590;28;20525;-36
2024/02/15 15:58:22;;;;;;;188.48;175.23;;;13.00;99.90;;;;;;12515462;28;20521;-36
2024/02/15 16:04:24;;;;;;;177.70;165.23;;;12.90;99.90;;;;;;12517641;28;20144;-36
2024/02/15 16:10:27;;;;;;;173.85;161.00;;;12.90;99.90;;;;;;12510026;28;20490;-36
2024/02/15 16:16:30;;;;;;;165.38;153.18;;;12.90;99.90;;;;;;12507509;28;20057;-36
2024/02/15 16:22:32;;;;;;;160.13;148.57;;;12.90;99.90;;;;;;12546131;28;20623;-36
2024/02/15 16:28:34;;;;;;;156.20;144.60;;;12.90;99.90;;;;;;12554109;28;20501;-36
2024/02/15 16:34:36;;;;;;;163.90;151.55;;;12.90;99.90;;;;;;12568494;28;20461;-36
2024/02/15 16:40:38;;;;;;;165.70;153.40;;;12.80;99.90;;;;;;12552972;28;20412;-36
2024/02/15 16:46:39;;;;;;;168.65;155.82;;;12.60;99.90;;;;;;12570865;28;20123;-37
2024/02/15 16:52:41;;;;;;;166.35;154.25;;;12.50;99.90;;;;;;12565578;28;20053;-36
2024/02/15 16:58:46;;;;;;;178.27;165.50;;;12.50;99.90;;;;;;12578196;28;20055;-37
2024/02/15 17:04:48;;;;;;;177.13;164.60;;;12.40;99.90;;;;;;12578679;28;20059;-36
2024/02/15 17:10:50;;;;;;;171.70;159.25;;;12.30;99.90;;;;;;12566646;28;20048;-36
2024/02/15 17:16:54;;;;;;;174.13;161.52;;;12.30;99.90;;;;;;12551014;28;20049;-36
2024/02/15 17:22:57;;;;;;;171.50;159.45;;;12.20;99.90;;;;;;12520497;28;20056;-36
2024/02/15 17:29:03;;;;;;;169.97;157.97;;;12.20;99.90;;;;;;12507641;28;20428;-36
2024/02/15 17:35:07;;;;;;;163.65;152.18;;;12.20;99.90;;;;;;12526080;28;20417;-36
2024/02/15 17:41:11;;;;;;;163.55;152.18;;;12.20;99.90;;;;;;12508304;28;20140;-36
2024/02/15 17:47:13;;;;;;;168.07;156.18;;;12.10;99.90;;;;;;12478594;28;20076;-36
2024/02/15 17:53:15;;;;;;;164.27;152.43;;;12.10;99.90;;;;;;12512128;28;20077;-36
2024/02/15 17:59:17;;;;;;;163.07;151.57;;;12.20;99.90;;;;;;12530978;28;20128;-36
2024/02/15 18:05:19;;;;;;;173.15;161.02;;;12.20;99.90;;;;;;12513361;28;20156;-36
2024/02/15 18:11:22;;;;;;;172.67;160.07;;;12.20;99.90;;;;;;12515480;28;20501;-35
2024/02/15 18:17:24;;;;;;;159.15;147.70;;;12.10;99.90;;;;;;12510295;28;20064;-36
2024/02/15 18:23:26;;;;;;;164.25;152.48;;;12.10;99.90;;;;;;12496239;28;20148;-36
2024/02/15 18:29:28;;;;;;;157.02;145.43;;;12.00;99.90;;;;;;12525573;28;20049;-36
2024/02/15 18:35:30;;;;;;;156.50;144.95;;;11.90;99.90;;;;;;12528319;28;20057;-35
2024/02/15 18:41:32;;;;;;;157.05;145.68;;;11.90;99.90;;;;;;12535822;28;20416;-36
2024/02/15 18:47:36;;;;;;;158.98;147.23;;;11.90;99.90;;;;;;12518530;28;20183;-35
2024/02/15 18:53:38;;;;;;;159.13;147.32;;;12.00;99.90;;;;;;12523231;28;20053;-36
2024/02/15 18:59:40;;;;;;;155.05;143.85;;;11.90;99.90;;;;;;12527700;28;20044;-36
2024/02/15 19:05:44;;;;;;;147.43;136.63;;;12.00;99.90;;;;;;12515015;28;20409;-36
2024/02/15 19:11:49;;;;;;;146.30;135.40;;;12.00;99.90;;;;;;12521236;28;20478;-35
2024/02/15 19:17:51;;;;;;;151.35;140.10;;;12.10;99.90;;;;;;12501577;28;20049;-36
2024/02/15 19:23:55;;;;;;;145.07;134.18;;;12.10;99.90;;;;;;12526035;28;20401;-36
2024/02/15 19:29:57;;;;;;;143.50;132.88;;;12.10;99.90;;;;;;12522732;28;20494;-36
2024/02/15 19:35:59;;;;;;;144.70;133.35;;;12.00;99.90;;;;;;12518244;28;20489;-36
2024/02/15 19:42:01;;;;;;;144.13;133.00;;;12.00;99.90;;;;;;12543834;28;20179;-36
2024/02/15 19:48:05;;;;;;;145.52;134.60;;;12.00;99.90;;;;;;12533693;28;20056;-36
2024/02/15 19:54:07;;;;;;;134.83;124.33;;;12.00;99.90;;;;;;12532672;28;20041;-36
2024/02/15 20:00:13;;;;;;;136.75;126.10;;;11.90;99.90;;;;;;12521414;28;20045;-35
2024/02/15 20:06:16;;;;;;;134.68;124.28;;;11.90;99.90;;;;;;12496461;28;20052;-36
2024/02/15 20:12:18;;;;;;;138.95;128.52;;;11.90;99.90;;;;;;12507811;28;20132;-36
2024/02/15 20:18:20;;;;;;;138.77;128.50;;;11.80;99.90;;;;;;12507765;28;20417;-36
2024/02/15 20:24:22;;;;;;;141.07;130.50;;;11.80;99.90;;;;;;12578377;28;20044;-36
2024/02/15 20:30:24;;;;;;;142.85;132.02;;;11.80;99.90;;;;;;12569028;28;20685;-35
2024/02/15 20:36:26;;;;;;;141.40;130.57;;;11.80;99.90;;;;;;12556032;28;20743;-35
2024/02/15 20:42:28;;;;;;;141.35;130.73;;;11.70;99.90;;;;;;12556370;28;20049;-36
2024/02/15 20:48:30;;;;;;;138.43;128.20;;;11.80;99.90;;;;;;12553854;28;20128;-35
2024/02/15 20:54:32;;;;;;;137.90;128.00;;;11.70;99.90;;;;;;12569357;28;20059;-36
2024/02/15 21:00:35;;;;;;;146.50;135.98;;;11.80;99.90;;;;;;12565305;28;20089;-35
2024/02/15 21:06:37;;;;;;;147.02;136.52;;;11.80;99.90;;;;;;12556119;28;20040;-35
2024/02/15 21:12:40;;;;;;;144.13;133.65;;;11.80;99.90;;;;;;12550248;28;20114;-35
2024/02/15 21:18:46;;;;;;;148.88;138.30;;;11.70;99.90;;;;;;12552575;28;20061;-36
2024/02/15 21:24:48;;;;;;;148.15;137.75;;;11.80;99.90;;;;;;12494554;28;20045;-35
2024/02/15 21:30:50;;;;;;;148.07;137.63;;;11.80;99.90;;;;;;12511521;28;20084;-35
2024/02/15 21:36:52;;;;;;;151.88;141.35;;;11.80;99.90;;;;;;12501869;28;20049;-35
2024/02/15 21:42:54;;;;;;;159.85;148.98;;;11.90;99.90;;;;;;12529816;28;20092;-36
2024/02/15 21:48:55;;;;;;;159.45;148.55;;;12.00;99.90;;;;;;12502739;28;20123;-36
2024/02/15 21:54:57;;;;;;;169.50;157.75;;;12.10;99.90;;;;;;12515659;28;20849;-36
2024/02/15 22:01:00;;;;;;;167.20;155.88;;;12.00;99.90;;;;;;12517736;28;20417;-36
2024/02/15 22:07:02;;;;;;;164.90;153.75;;;12.00;99.90;;;;;;12507223;28;20052;-35
2024/02/15 22:13:04;;;;;;;155.93;144.90;;;11.90;99.90;;;;;;12497314;28;20064;-36
2024/02/15 22:19:07;;;;;;;155.10;143.80;;;11.80;99.90;;;;;;12514734;28;20183;-36
2024/02/15 22:25:10;;;;;;;149.80;138.68;;;11.80;99.90;;;;;;12566514;28;20098;-35
2024/02/15 22:31:17;;;;;;;141.77;131.30;;;11.80;99.90;;;;;;12569633;28;20736;-36
2024/02/15 22:37:18;;;;;;;143.60;133.30;;;11.70;99.90;;;;;;12553959;28;20456;-36
2024/02/15 22:43:22;;;;;;;149.13;138.65;;;11.70;99.90;;;;;;12553596;28;20155;-35
2024/02/15 22:49:24;;;;;;;148.30;138.23;;;11.70;99.90;;;;;;12573072;28;20481;-35
2024/02/15 22:55:25;;;;;;;151.85;141.55;;;11.70;99.90;;;;;;12581607;28;20088;-35
2024/02/15 23:01:28;;;;;;;150.07;139.93;;;11.70;99.90;;;;;;12573717;28;20489;-35
2024/02/15 23:07:30;;;;;;;151.82;141.35;;;11.70;99.90;;;;;;12565394;28;20090;-35
2024/02/15 23:13:32;;;;;;;153.88;143.55;;;11.80;99.90;;;;;;12573659;28;20120;-35
2024/02/15 23:19:34;;;;;;;156.70;146.27;;;11.80;99.90;;;;;;12554648;28;20092;-36
2024/02/15 23:25:36;;;;;;;152.68;142.57;;;11.80;99.90;;;;;;12563472;28;20095;-35
2024/02/15 23:31:39;;;;;;;155.23;144.85;;;11.80;99.90;;;;;;12564273;28;20099;-35
2024/02/15 23:44:02;;;;;;;149.05;138.93;;;11.70;99.90;;;;;;12575947;28;20142;-36
2024/02/15 23:50:04;;;;;;;152.43;141.85;;;11.70;99.90;;;;;;12598051;28;20048;-35
2024/02/15 23:56:08;;;;;;;152.23;142.07;;;11.60;99.90;;;;;;12585317;28;20052;-35
